sensor_id;sensor_type;location;lat;lon;timestamp;P1;durP1;ratioP1;P2;durP2;ratioP2
13204;SDS011;6667;52.634;9.226;2022-10-22T08:03:43;8.97;;;4.10;;
13204;SDS011;6667;52.634;9.226;2022-10-22T08:06:11;8.63;;;4.43;;
13204;SDS011;6667;52.634;9.226;2022-10-22T08:08:38;8.03;;;4.30;;
13204;SDS011;6667;52.634;9.226;2022-10-22T08:11:05;7.53;;;3.80;;
13204;SDS011;6667;52.634;9.226;2022-10-22T08:13:32;6.67;;;4.20;;
13204;SDS011;6667;52.634;9.226;2022-10-22T08:15:59;5.20;;;3.50;;
13204;SDS011;6667;52.634;9.226;2022-10-22T08:18:26;5.60;;;3.77;;
13204;SDS011;6667;52.634;9.226;2022-10-22T08:20:55;7.43;;;4.00;;
13204;SDS011;6667;52.634;9.226;2022-10-22T08:23:23;5.30;;;3.60;;
13204;SDS011;6667;52.634;9.226;2022-10-22T08:25:49;5.70;;;3.30;;
13204;SDS011;6667;52.634;9.226;2022-10-22T08:28:16;4.50;;;2.80;;
13204;SDS011;6667;52.634;9.226;2022-10-22T08:30:43;3.67;;;3.00;;
13204;SDS011;6667;52.634;9.226;2022-10-22T08:33:12;5.30;;;3.03;;
13204;SDS011;6667;52.634;9.226;2022-10-22T08:35:38;5.43;;;2.20;;
13204;SDS011;6667;52.634;9.226;2022-10-22T08:38:06;5.47;;;2.30;;
13204;SDS011;6667;52.634;9.226;2022-10-22T08:40:34;5.87;;;2.40;;
13204;SDS011;6667;52.634;9.226;2022-10-22T08:43:06;4.33;;;2.30;;
13204;SDS011;6667;52.634;9.226;2022-10-22T08:45:55;4.67;;;2.10;;
13204;SDS011;6667;52.634;9.226;2022-10-22T08:48:41;3.07;;;1.93;;
13204;SDS011;6667;52.634;9.226;2022-10-22T08:51:11;5.00;;;2.30;;
13204;SDS011;6667;52.634;9.226;2022-10-22T08:53:44;5.07;;;2.40;;
13204;SDS011;6667;52.634;9.226;2022-10-22T08:56:18;4.83;;;1.93;;
13204;SDS011;6667;52.634;9.226;2022-10-22T08:58:48;3.53;;;2.10;;
13204;SDS011;6667;52.634;9.226;2022-10-22T09:01:20;6.17;;;2.07;;
13204;SDS011;6667;52.634;9.226;2022-10-22T09:03:49;5.33;;;2.23;;
13204;SDS011;6667;52.634;9.226;2022-10-22T09:06:22;5.20;;;2.10;;
13204;SDS011;6667;52.634;9.226;2022-10-22T09:08:51;2.20;;;1.93;;
13204;SDS011;6667;52.634;9.226;2022-10-22T09:11:23;3.47;;;1.93;;
13204;SDS011;6667;52.634;9.226;2022-10-22T09:13:53;6.00;;;2.10;;
13204;SDS011;6667;52.634;9.226;2022-10-22T09:16:23;2.57;;;1.87;;
13204;SDS011;6667;52.634;9.226;2022-10-22T09:19:00;5.67;;;2.27;;
13204;SDS011;6667;52.634;9.226;2022-10-22T09:21:37;6.67;;;2.70;;
13204;SDS011;6667;52.634;9.226;2022-10-22T09:24:10;4.13;;;2.30;;
13204;SDS011;6667;52.634;9.226;2022-10-22T09:26:38;4.63;;;2.20;;
13204;SDS011;6667;52.634;9.226;2022-10-22T09:29:08;5.83;;;2.27;;
13204;SDS011;6667;52.634;9.226;2022-10-22T09:31:42;4.33;;;2.33;;
13204;SDS011;6667;52.634;9.226;2022-10-22T09:34:09;2.87;;;2.00;;
13204;SDS011;6667;52.634;9.226;2022-10-22T09:36:39;2.93;;;2.13;;
13204;SDS011;6667;52.634;9.226;2022-10-22T09:39:14;4.90;;;2.20;;
13204;SDS011;6667;52.634;9.226;2022-10-22T09:41:47;6.75;;;2.40;;
13204;SDS011;6667;52.634;9.226;2022-10-22T09:44:14;4.88;;;2.22;;
13204;SDS011;6667;52.634;9.226;2022-10-22T09:46:43;5.05;;;2.28;;
13204;SDS011;6667;52.634;9.226;2022-10-22T09:49:11;4.32;;;1.90;;
13204;SDS011;6667;52.634;9.226;2022-10-22T09:51:45;5.80;;;2.35;;
13204;SDS011;6667;52.634;9.226;2022-10-22T09:54:18;4.13;;;2.45;;
13204;SDS011;6667;52.634;9.226;2022-10-22T09:56:48;5.43;;;2.33;;
13204;SDS011;6667;52.634;9.226;2022-10-22T09:59:18;5.23;;;2.43;;
13204;SDS011;6667;52.634;9.226;2022-10-22T10:01:55;8.32;;;2.30;;
13204;SDS011;6667;52.634;9.226;2022-10-22T10:04:23;3.33;;;2.08;;
13204;SDS011;6667;52.634;9.226;2022-10-22T10:06:52;2.78;;;2.40;;
13204;SDS011;6667;52.634;9.226;2022-10-22T10:09:22;3.83;;;2.40;;
13204;SDS011;6667;52.634;9.226;2022-10-22T10:11:53;7.50;;;2.38;;
13204;SDS011;6667;52.634;9.226;2022-10-22T10:14:27;5.50;;;2.50;;
13204;SDS011;6667;52.634;9.226;2022-10-22T10:17:04;8.93;;;2.80;;
13204;SDS011;6667;52.634;9.226;2022-10-22T10:19:44;4.00;;;2.08;;
13204;SDS011;6667;52.634;9.226;2022-10-22T10:22:28;3.38;;;2.45;;
13204;SDS011;6667;52.634;9.226;2022-10-22T10:25:17;5.15;;;2.42;;
13204;SDS011;6667;52.634;9.226;2022-10-22T10:28:11;5.43;;;2.33;;
13204;SDS011;6667;52.634;9.226;2022-10-22T10:30:46;5.80;;;2.65;;
13204;SDS011;6667;52.634;9.226;2022-10-22T10:33:23;5.18;;;2.85;;
13204;SDS011;6667;52.634;9.226;2022-10-22T10:35:57;4.00;;;2.67;;
13204;SDS011;6667;52.634;9.226;2022-10-22T10:38:34;6.75;;;2.45;;
13204;SDS011;6667;52.634;9.226;2022-10-22T10:41:15;4.93;;;2.53;;
13204;SDS011;6667;52.634;9.226;2022-10-22T10:43:48;6.03;;;2.60;;
13204;SDS011;6667;52.634;9.226;2022-10-22T10:46:37;6.85;;;3.03;;
13204;SDS011;6667;52.634;9.226;2022-10-22T10:49:15;6.32;;;3.13;;
13204;SDS011;6667;52.634;9.226;2022-10-22T10:51:47;5.63;;;2.20;;
13204;SDS011;6667;52.634;9.226;2022-10-22T10:54:22;5.97;;;2.45;;
13204;SDS011;6667;52.634;9.226;2022-10-22T10:57:01;4.38;;;2.40;;
13204;SDS011;6667;52.634;9.226;2022-10-22T10:59:36;4.57;;;2.72;;
13204;SDS011;6667;52.634;9.226;2022-10-22T11:02:18;8.35;;;2.40;;
13204;SDS011;6667;52.634;9.226;2022-10-22T11:05:25;13.13;;;3.40;;
13204;SDS011;6667;52.634;9.226;2022-10-22T11:07:57;3.70;;;2.13;;
13204;SDS011;6667;52.634;9.226;2022-10-22T11:10:27;4.55;;;2.30;;
13204;SDS011;6667;52.634;9.226;2022-10-22T11:13:00;5.57;;;2.45;;
13204;SDS011;6667;52.634;9.226;2022-10-22T11:15:32;6.53;;;2.22;;
13204;SDS011;6667;52.634;9.226;2022-10-22T11:18:02;8.68;;;2.10;;
13204;SDS011;6667;52.634;9.226;2022-10-22T11:20:39;5.18;;;1.95;;
13204;SDS011;6667;52.634;9.226;2022-10-22T11:23:12;4.30;;;2.50;;
13204;SDS011;6667;52.634;9.226;2022-10-22T11:25:43;11.30;;;2.15;;
13204;SDS011;6667;52.634;9.226;2022-10-22T11:28:13;5.75;;;2.40;;
13204;SDS011;6667;52.634;9.226;2022-10-22T11:30:44;5.10;;;2.10;;
13204;SDS011;6667;52.634;9.226;2022-10-22T11:33:15;5.57;;;2.35;;
13204;SDS011;6667;52.634;9.226;2022-10-22T11:35:46;6.60;;;2.25;;
13204;SDS011;6667;52.634;9.226;2022-10-22T11:38:15;5.20;;;2.33;;
13204;SDS011;6667;52.634;9.226;2022-10-22T11:40:47;7.45;;;2.13;;
13204;SDS011;6667;52.634;9.226;2022-10-22T11:43:26;8.00;;;3.58;;
13204;SDS011;6667;52.634;9.226;2022-10-22T11:45:56;3.10;;;2.22;;
13204;SDS011;6667;52.634;9.226;2022-10-22T11:48:27;8.90;;;2.30;;
13204;SDS011;6667;52.634;9.226;2022-10-22T11:51:01;4.35;;;2.28;;
13204;SDS011;6667;52.634;9.226;2022-10-22T11:53:29;7.85;;;2.03;;
13204;SDS011;6667;52.634;9.226;2022-10-22T11:55:57;6.10;;;2.72;;
13204;SDS011;6667;52.634;9.226;2022-10-22T11:58:47;5.00;;;1.83;;
13204;SDS011;6667;52.634;9.226;2022-10-22T12:01:16;8.48;;;2.78;;
13204;SDS011;6667;52.634;9.226;2022-10-22T12:03:48;4.35;;;1.90;;
13204;SDS011;6667;52.634;9.226;2022-10-22T12:06:18;3.90;;;1.92;;
13204;SDS011;6667;52.634;9.226;2022-10-22T12:08:50;5.07;;;1.90;;
13204;SDS011;6667;52.634;9.226;2022-10-22T12:11:21;2.72;;;1.88;;
13204;SDS011;6667;52.634;9.226;2022-10-22T12:16:45;4.40;;;2.10;;
13204;SDS011;6667;52.634;9.226;2022-10-22T12:19:17;3.92;;;2.00;;
13204;SDS011;6667;52.634;9.226;2022-10-22T12:21:51;5.28;;;1.90;;
13204;SDS011;6667;52.634;9.226;2022-10-22T12:24:20;5.03;;;2.20;;
13204;SDS011;6667;52.634;9.226;2022-10-22T12:26:48;8.20;;;1.80;;
13204;SDS011;6667;52.634;9.226;2022-10-22T12:29:18;7.95;;;1.92;;
13204;SDS011;6667;52.634;9.226;2022-10-22T12:31:47;3.60;;;2.10;;
13204;SDS011;6667;52.634;9.226;2022-10-22T12:34:16;4.60;;;2.28;;
13204;SDS011;6667;52.634;9.226;2022-10-22T12:36:45;3.90;;;1.38;;
13204;SDS011;6667;52.634;9.226;2022-10-22T12:39:13;5.00;;;2.58;;
13204;SDS011;6667;52.634;9.226;2022-10-22T12:41:41;5.22;;;2.90;;
13204;SDS011;6667;52.634;9.226;2022-10-22T12:44:10;6.35;;;2.20;;
13204;SDS011;6667;52.634;9.226;2022-10-22T12:46:40;3.95;;;1.67;;
13204;SDS011;6667;52.634;9.226;2022-10-22T12:49:10;3.78;;;2.13;;
13204;SDS011;6667;52.634;9.226;2022-10-22T12:51:42;3.47;;;1.70;;
13204;SDS011;6667;52.634;9.226;2022-10-22T12:54:14;4.63;;;1.65;;
13204;SDS011;6667;52.634;9.226;2022-10-22T12:56:48;3.78;;;1.48;;
13204;SDS011;6667;52.634;9.226;2022-10-22T12:59:17;5.57;;;2.08;;
13204;SDS011;6667;52.634;9.226;2022-10-22T13:01:48;3.70;;;1.52;;
13204;SDS011;6667;52.634;9.226;2022-10-22T13:04:20;3.55;;;1.30;;
13204;SDS011;6667;52.634;9.226;2022-10-22T13:07:02;4.97;;;2.05;;
13204;SDS011;6667;52.634;9.226;2022-10-22T13:09:36;5.57;;;1.98;;
13204;SDS011;6667;52.634;9.226;2022-10-22T13:12:04;3.20;;;1.92;;
13204;SDS011;6667;52.634;9.226;2022-10-22T13:14:35;5.57;;;1.50;;
13204;SDS011;6667;52.634;9.226;2022-10-22T13:17:06;4.03;;;1.80;;
13204;SDS011;6667;52.634;9.226;2022-10-22T13:19:35;4.95;;;2.08;;
13204;SDS011;6667;52.634;9.226;2022-10-22T13:22:26;3.95;;;1.45;;
13204;SDS011;6667;52.634;9.226;2022-10-22T13:24:58;2.80;;;1.50;;
13204;SDS011;6667;52.634;9.226;2022-10-22T13:27:45;4.18;;;1.40;;
13204;SDS011;6667;52.634;9.226;2022-10-22T13:30:17;3.63;;;1.40;;
13204;SDS011;6667;52.634;9.226;2022-10-22T13:32:49;3.38;;;1.45;;
13204;SDS011;6667;52.634;9.226;2022-10-22T13:35:19;5.85;;;1.50;;
13204;SDS011;6667;52.634;9.226;2022-10-22T13:37:50;3.63;;;0.88;;
13204;SDS011;6667;52.634;9.226;2022-10-22T13:40:16;2.72;;;1.17;;
13204;SDS011;6667;52.634;9.226;2022-10-22T13:42:43;3.58;;;1.23;;
13204;SDS011;6667;52.634;9.226;2022-10-22T13:45:11;2.30;;;1.38;;
13204;SDS011;6667;52.634;9.226;2022-10-22T13:47:38;2.03;;;1.13;;
13204;SDS011;6667;52.634;9.226;2022-10-22T13:50:10;3.42;;;1.50;;
13204;SDS011;6667;52.634;9.226;2022-10-22T13:52:39;3.47;;;1.13;;
13204;SDS011;6667;52.634;9.226;2022-10-22T13:55:11;2.67;;;1.17;;
13204;SDS011;6667;52.634;9.226;2022-10-22T13:57:40;2.67;;;1.05;;
13204;SDS011;6667;52.634;9.226;2022-10-22T14:00:09;4.88;;;2.00;;
13204;SDS011;6667;52.634;9.226;2022-10-22T14:02:38;3.95;;;1.80;;
13204;SDS011;6667;52.634;9.226;2022-10-22T14:05:05;4.03;;;1.85;;
13204;SDS011;6667;52.634;9.226;2022-10-22T14:07:34;4.90;;;1.67;;
13204;SDS011;6667;52.634;9.226;2022-10-22T14:10:01;5.15;;;1.77;;
13204;SDS011;6667;52.634;9.226;2022-10-22T14:12:31;3.70;;;1.40;;
13204;SDS011;6667;52.634;9.226;2022-10-22T14:14:58;3.38;;;1.55;;
13204;SDS011;6667;52.634;9.226;2022-10-22T14:17:24;2.45;;;2.05;;
13204;SDS011;6667;52.634;9.226;2022-10-22T14:19:52;1.88;;;1.70;;
13204;SDS011;6667;52.634;9.226;2022-10-22T14:22:19;7.97;;;1.60;;
13204;SDS011;6667;52.634;9.226;2022-10-22T14:24:49;4.93;;;2.20;;
13204;SDS011;6667;52.634;9.226;2022-10-22T14:27:18;4.47;;;1.92;;
13204;SDS011;6667;52.634;9.226;2022-10-22T14:29:45;4.60;;;2.35;;
13204;SDS011;6667;52.634;9.226;2022-10-22T14:32:12;3.85;;;1.83;;
13204;SDS011;6667;52.634;9.226;2022-10-22T14:34:40;4.72;;;2.25;;
13204;SDS011;6667;52.634;9.226;2022-10-22T14:37:12;3.78;;;1.70;;
13204;SDS011;6667;52.634;9.226;2022-10-22T14:39:42;4.05;;;1.50;;
13204;SDS011;6667;52.634;9.226;2022-10-22T14:42:12;2.83;;;1.65;;
13204;SDS011;6667;52.634;9.226;2022-10-22T14:44:40;6.55;;;1.88;;
13204;SDS011;6667;52.634;9.226;2022-10-22T14:47:07;7.55;;;1.90;;
13204;SDS011;6667;52.634;9.226;2022-10-22T14:49:34;5.00;;;1.60;;
13204;SDS011;6667;52.634;9.226;2022-10-22T14:52:00;2.55;;;1.50;;
13204;SDS011;6667;52.634;9.226;2022-10-22T14:54:27;5.22;;;1.77;;
13204;SDS011;6667;52.634;9.226;2022-10-22T14:56:54;4.47;;;2.15;;
13204;SDS011;6667;52.634;9.226;2022-10-22T14:59:22;2.80;;;1.80;;
13204;SDS011;6667;52.634;9.226;2022-10-22T15:01:49;4.72;;;1.90;;
13204;SDS011;6667;52.634;9.226;2022-10-22T15:04:15;2.97;;;1.85;;
13204;SDS011;6667;52.634;9.226;2022-10-22T15:06:42;5.05;;;2.05;;
13204;SDS011;6667;52.634;9.226;2022-10-22T15:09:09;3.22;;;1.77;;
13204;SDS011;6667;52.634;9.226;2022-10-22T15:11:35;3.08;;;1.70;;
13204;SDS011;6667;52.634;9.226;2022-10-22T15:14:02;7.43;;;2.53;;
13204;SDS011;6667;52.634;9.226;2022-10-22T15:16:30;7.75;;;2.05;;
13204;SDS011;6667;52.634;9.226;2022-10-22T15:18:57;3.33;;;1.70;;
13204;SDS011;6667;52.634;9.226;2022-10-22T15:21:24;3.53;;;1.88;;
13204;SDS011;6667;52.634;9.226;2022-10-22T15:23:51;2.95;;;1.60;;
13204;SDS011;6667;52.634;9.226;2022-10-22T15:26:18;4.38;;;2.05;;
13204;SDS011;6667;52.634;9.226;2022-10-22T15:28:45;4.07;;;1.67;;
13204;SDS011;6667;52.634;9.226;2022-10-22T15:31:12;2.25;;;2.05;;
13204;SDS011;6667;52.634;9.226;2022-10-22T15:33:41;4.77;;;2.03;;
13204;SDS011;6667;52.634;9.226;2022-10-22T15:36:08;5.75;;;2.60;;
13204;SDS011;6667;52.634;9.226;2022-10-22T15:38:36;3.60;;;2.42;;
13204;SDS011;6667;52.634;9.226;2022-10-22T15:41:03;4.60;;;2.92;;
13204;SDS011;6667;52.634;9.226;2022-10-22T15:43:31;8.17;;;2.60;;
13204;SDS011;6667;52.634;9.226;2022-10-22T15:46:07;2.80;;;2.20;;
13204;SDS011;6667;52.634;9.226;2022-10-22T15:48:35;5.03;;;3.03;;
13204;SDS011;6667;52.634;9.226;2022-10-22T15:51:07;6.27;;;2.60;;
13204;SDS011;6667;52.634;9.226;2022-10-22T15:53:35;4.83;;;2.30;;
13204;SDS011;6667;52.634;9.226;2022-10-22T15:56:02;5.23;;;2.70;;
13204;SDS011;6667;52.634;9.226;2022-10-22T15:58:29;3.90;;;2.22;;
13204;SDS011;6667;52.634;9.226;2022-10-22T16:01:02;7.63;;;3.10;;
13204;SDS011;6667;52.634;9.226;2022-10-22T16:03:30;6.43;;;2.63;;
13204;SDS011;6667;52.634;9.226;2022-10-22T16:05:56;4.23;;;2.33;;
13204;SDS011;6667;52.634;9.226;2022-10-22T16:08:25;3.90;;;2.10;;
13204;SDS011;6667;52.634;9.226;2022-10-22T16:10:52;2.27;;;2.00;;
13204;SDS011;6667;52.634;9.226;2022-10-22T16:13:18;4.43;;;2.67;;
13204;SDS011;6667;52.634;9.226;2022-10-22T16:15:47;4.70;;;2.97;;
13204;SDS011;6667;52.634;9.226;2022-10-22T16:18:14;7.40;;;3.10;;
13204;SDS011;6667;52.634;9.226;2022-10-22T16:20:41;6.90;;;2.67;;
13204;SDS011;6667;52.634;9.226;2022-10-22T16:23:08;4.90;;;2.73;;
13204;SDS011;6667;52.634;9.226;2022-10-22T16:25:37;3.83;;;2.40;;
13204;SDS011;6667;52.634;9.226;2022-10-22T16:28:04;9.17;;;2.80;;
13204;SDS011;6667;52.634;9.226;2022-10-22T16:30:31;3.43;;;2.30;;
13204;SDS011;6667;52.634;9.226;2022-10-22T16:32:59;2.60;;;2.40;;
13204;SDS011;6667;52.634;9.226;2022-10-22T16:35:25;3.87;;;2.60;;
13204;SDS011;6667;52.634;9.226;2022-10-22T16:37:52;5.30;;;2.63;;
13204;SDS011;6667;52.634;9.226;2022-10-22T16:40:19;4.47;;;2.40;;
13204;SDS011;6667;52.634;9.226;2022-10-22T16:42:47;4.60;;;2.43;;
13204;SDS011;6667;52.634;9.226;2022-10-22T16:45:14;3.03;;;2.23;;
13204;SDS011;6667;52.634;9.226;2022-10-22T16:47:41;5.47;;;2.47;;
13204;SDS011;6667;52.634;9.226;2022-10-22T16:50:10;2.77;;;2.57;;
13204;SDS011;6667;52.634;9.226;2022-10-22T16:52:37;5.60;;;2.70;;
13204;SDS011;6667;52.634;9.226;2022-10-22T16:55:04;6.30;;;4.23;;
13204;SDS011;6667;52.634;9.226;2022-10-22T16:57:31;10.33;;;4.07;;
13204;SDS011;6667;52.634;9.226;2022-10-22T17:00:01;6.00;;;3.40;;
13204;SDS011;6667;52.634;9.226;2022-10-22T17:02:29;5.37;;;3.37;;
13204;SDS011;6667;52.634;9.226;2022-10-22T17:04:56;7.97;;;4.10;;
13204;SDS011;6667;52.634;9.226;2022-10-22T17:07:22;5.47;;;3.80;;
13204;SDS011;6667;52.634;9.226;2022-10-22T17:09:49;6.67;;;3.37;;
13204;SDS011;6667;52.634;9.226;2022-10-22T17:12:16;4.50;;;3.40;;
13204;SDS011;6667;52.634;9.226;2022-10-22T17:14:42;3.87;;;2.80;;
13204;SDS011;6667;52.634;9.226;2022-10-22T17:17:10;4.63;;;3.03;;
13204;SDS011;6667;52.634;9.226;2022-10-22T17:19:37;4.13;;;3.17;;
13204;SDS011;6667;52.634;9.226;2022-10-22T17:22:04;5.23;;;3.20;;
13204;SDS011;6667;52.634;9.226;2022-10-22T17:24:31;9.63;;;4.10;;
13204;SDS011;6667;52.634;9.226;2022-10-22T17:26:57;8.27;;;3.47;;
13204;SDS011;6667;52.634;9.226;2022-10-22T17:29:24;6.30;;;3.70;;
13204;SDS011;6667;52.634;9.226;2022-10-22T17:31:51;6.50;;;4.20;;
13204;SDS011;6667;52.634;9.226;2022-10-22T17:34:19;3.50;;;2.97;;
13204;SDS011;6667;52.634;9.226;2022-10-22T17:36:46;9.07;;;3.53;;
13204;SDS011;6667;52.634;9.226;2022-10-22T17:39:14;5.83;;;3.20;;
13204;SDS011;6667;52.634;9.226;2022-10-22T17:41:42;6.23;;;3.37;;
13204;SDS011;6667;52.634;9.226;2022-10-22T17:44:09;5.17;;;3.47;;
13204;SDS011;6667;52.634;9.226;2022-10-22T17:46:37;5.40;;;3.60;;
13204;SDS011;6667;52.634;9.226;2022-10-22T17:49:05;7.47;;;4.70;;
13204;SDS011;6667;52.634;9.226;2022-10-22T17:51:38;5.33;;;4.20;;
13204;SDS011;6667;52.634;9.226;2022-10-22T17:54:05;4.57;;;3.97;;
13204;SDS011;6667;52.634;9.226;2022-10-22T17:56:32;7.03;;;4.57;;
13204;SDS011;6667;52.634;9.226;2022-10-22T17:58:59;5.50;;;4.13;;
13204;SDS011;6667;52.634;9.226;2022-10-22T18:01:27;7.83;;;4.40;;
13204;SDS011;6667;52.634;9.226;2022-10-22T18:03:57;8.47;;;3.97;;
13204;SDS011;6667;52.634;9.226;2022-10-22T18:06:25;7.60;;;4.30;;
13204;SDS011;6667;52.634;9.226;2022-10-22T18:08:54;5.87;;;4.20;;
13204;SDS011;6667;52.634;9.226;2022-10-22T18:11:22;6.53;;;3.80;;
13204;SDS011;6667;52.634;9.226;2022-10-22T18:13:51;5.97;;;4.00;;
13204;SDS011;6667;52.634;9.226;2022-10-22T18:16:19;7.30;;;4.30;;
13204;SDS011;6667;52.634;9.226;2022-10-22T18:18:45;7.30;;;4.70;;
13204;SDS011;6667;52.634;9.226;2022-10-22T18:21:13;7.93;;;4.33;;
13204;SDS011;6667;52.634;9.226;2022-10-22T18:23:40;10.77;;;4.00;;
13204;SDS011;6667;52.634;9.226;2022-10-22T18:26:08;9.07;;;4.13;;
13204;SDS011;6667;52.634;9.226;2022-10-22T18:28:35;4.27;;;3.77;;
13204;SDS011;6667;52.634;9.226;2022-10-22T18:31:04;6.87;;;4.00;;
13204;SDS011;6667;52.634;9.226;2022-10-22T18:33:32;7.90;;;4.87;;
13204;SDS011;6667;52.634;9.226;2022-10-22T18:36:02;5.03;;;3.87;;
13204;SDS011;6667;52.634;9.226;2022-10-22T18:38:29;6.33;;;4.37;;
13204;SDS011;6667;52.634;9.226;2022-10-22T18:40:56;7.40;;;3.97;;
13204;SDS011;6667;52.634;9.226;2022-10-22T18:43:24;7.83;;;4.10;;
13204;SDS011;6667;52.634;9.226;2022-10-22T18:45:51;6.33;;;3.87;;
13204;SDS011;6667;52.634;9.226;2022-10-22T18:48:18;8.17;;;4.53;;
13204;SDS011;6667;52.634;9.226;2022-10-22T18:50:52;5.83;;;4.37;;
13204;SDS011;6667;52.634;9.226;2022-10-22T18:53:24;7.70;;;4.73;;
13204;SDS011;6667;52.634;9.226;2022-10-22T18:55:50;6.17;;;4.53;;
13204;SDS011;6667;52.634;9.226;2022-10-22T18:58:17;7.33;;;4.30;;
13204;SDS011;6667;52.634;9.226;2022-10-22T19:00:45;6.67;;;4.53;;
13204;SDS011;6667;52.634;9.226;2022-10-22T19:03:12;13.17;;;4.70;;
13204;SDS011;6667;52.634;9.226;2022-10-22T19:05:42;6.77;;;4.50;;
13204;SDS011;6667;52.634;9.226;2022-10-22T19:08:10;8.50;;;5.00;;
13204;SDS011;6667;52.634;9.226;2022-10-22T19:10:37;9.83;;;5.87;;
13204;SDS011;6667;52.634;9.226;2022-10-22T19:13:03;17.63;;;8.97;;
13204;SDS011;6667;52.634;9.226;2022-10-22T19:15:30;15.20;;;9.00;;
13204;SDS011;6667;52.634;9.226;2022-10-22T19:17:58;14.57;;;9.13;;
13204;SDS011;6667;52.634;9.226;2022-10-22T19:20:25;14.17;;;9.00;;
13204;SDS011;6667;52.634;9.226;2022-10-22T19:22:51;16.30;;;9.00;;
13204;SDS011;6667;52.634;9.226;2022-10-22T19:25:20;15.43;;;8.17;;
13204;SDS011;6667;52.634;9.226;2022-10-22T19:27:47;11.13;;;7.67;;
13204;SDS011;6667;52.634;9.226;2022-10-22T19:30:14;15.90;;;7.30;;
13204;SDS011;6667;52.634;9.226;2022-10-22T19:32:41;11.17;;;6.53;;
13204;SDS011;6667;52.634;9.226;2022-10-22T19:35:09;12.37;;;6.27;;
13204;SDS011;6667;52.634;9.226;2022-10-22T19:37:36;9.50;;;5.37;;
13204;SDS011;6667;52.634;9.226;2022-10-22T19:40:03;7.43;;;5.17;;
13204;SDS011;6667;52.634;9.226;2022-10-22T19:42:31;9.33;;;5.20;;
13204;SDS011;6667;52.634;9.226;2022-10-22T19:44:58;10.33;;;5.27;;
13204;SDS011;6667;52.634;9.226;2022-10-22T19:47:25;5.60;;;4.67;;
13204;SDS011;6667;52.634;9.226;2022-10-22T19:49:51;9.13;;;5.00;;
13204;SDS011;6667;52.634;9.226;2022-10-22T19:52:19;7.80;;;4.50;;
13204;SDS011;6667;52.634;9.226;2022-10-22T19:54:47;7.27;;;5.00;;
13204;SDS011;6667;52.634;9.226;2022-10-22T19:57:14;9.27;;;4.90;;
13204;SDS011;6667;52.634;9.226;2022-10-22T19:59:42;9.17;;;4.93;;
13204;SDS011;6667;52.634;9.226;2022-10-22T20:02:10;6.77;;;4.77;;
13204;SDS011;6667;52.634;9.226;2022-10-22T20:04:39;7.63;;;4.20;;
13204;SDS011;6667;52.634;9.226;2022-10-22T20:07:06;8.47;;;3.93;;
13204;SDS011;6667;52.634;9.226;2022-10-22T20:09:34;5.63;;;3.73;;
13204;SDS011;6667;52.634;9.226;2022-10-22T20:12:01;5.90;;;3.50;;
13204;SDS011;6667;52.634;9.226;2022-10-22T20:14:28;8.00;;;4.20;;
13204;SDS011;6667;52.634;9.226;2022-10-22T20:16:54;7.37;;;3.90;;
13204;SDS011;6667;52.634;9.226;2022-10-22T20:19:21;6.90;;;4.33;;
13204;SDS011;6667;52.634;9.226;2022-10-22T20:21:50;5.17;;;3.93;;
13204;SDS011;6667;52.634;9.226;2022-10-22T20:24:17;8.70;;;4.57;;
13204;SDS011;6667;52.634;9.226;2022-10-22T20:26:45;8.30;;;4.63;;
13204;SDS011;6667;52.634;9.226;2022-10-22T20:29:12;9.03;;;5.43;;
13204;SDS011;6667;52.634;9.226;2022-10-22T20:31:39;8.27;;;3.97;;
13204;SDS011;6667;52.634;9.226;2022-10-22T20:34:06;5.50;;;3.90;;
13204;SDS011;6667;52.634;9.226;2022-10-22T20:36:34;7.00;;;3.97;;
13204;SDS011;6667;52.634;9.226;2022-10-22T20:39:01;6.83;;;3.47;;
13204;SDS011;6667;52.634;9.226;2022-10-22T20:41:30;8.73;;;4.00;;
13204;SDS011;6667;52.634;9.226;2022-10-22T20:43:59;5.80;;;4.10;;
13204;SDS011;6667;52.634;9.226;2022-10-22T20:46:27;6.80;;;3.87;;
13204;SDS011;6667;52.634;9.226;2022-10-22T20:48:57;6.77;;;4.10;;
13204;SDS011;6667;52.634;9.226;2022-10-22T20:51:25;10.60;;;3.57;;
13204;SDS011;6667;52.634;9.226;2022-10-22T20:53:52;8.40;;;3.90;;
13204;SDS011;6667;52.634;9.226;2022-10-22T20:56:19;6.93;;;3.97;;
13204;SDS011;6667;52.634;9.226;2022-10-22T20:58:45;9.73;;;3.90;;
13204;SDS011;6667;52.634;9.226;2022-10-22T21:01:15;8.53;;;3.90;;
13204;SDS011;6667;52.634;9.226;2022-10-22T21:03:45;6.83;;;4.17;;
13204;SDS011;6667;52.634;9.226;2022-10-22T21:06:12;5.10;;;3.90;;
13204;SDS011;6667;52.634;9.226;2022-10-22T21:08:39;8.57;;;4.13;;
13204;SDS011;6667;52.634;9.226;2022-10-22T21:11:06;10.43;;;3.97;;
13204;SDS011;6667;52.634;9.226;2022-10-22T21:13:33;5.73;;;3.40;;
13204;SDS011;6667;52.634;9.226;2022-10-22T21:16:05;10.67;;;6.27;;
13204;SDS011;6667;52.634;9.226;2022-10-22T21:18:34;8.53;;;4.47;;
13204;SDS011;6667;52.634;9.226;2022-10-22T21:21:02;7.60;;;4.50;;
13204;SDS011;6667;52.634;9.226;2022-10-22T21:23:29;5.33;;;3.83;;
13204;SDS011;6667;52.634;9.226;2022-10-22T21:25:56;7.60;;;3.63;;
13204;SDS011;6667;52.634;9.226;2022-10-22T21:28:23;6.23;;;4.07;;
13204;SDS011;6667;52.634;9.226;2022-10-22T21:30:50;7.83;;;4.10;;
13204;SDS011;6667;52.634;9.226;2022-10-22T21:33:17;6.27;;;4.40;;
13204;SDS011;6667;52.634;9.226;2022-10-22T21:35:49;9.37;;;5.90;;
13204;SDS011;6667;52.634;9.226;2022-10-22T21:38:17;11.83;;;8.63;;
13204;SDS011;6667;52.634;9.226;2022-10-22T21:40:43;7.03;;;4.63;;
13204;SDS011;6667;52.634;9.226;2022-10-22T21:43:10;7.33;;;4.37;;
13204;SDS011;6667;52.634;9.226;2022-10-22T21:45:37;7.27;;;4.53;;
13204;SDS011;6667;52.634;9.226;2022-10-22T21:48:04;9.13;;;4.97;;
13204;SDS011;6667;52.634;9.226;2022-10-22T21:50:31;5.73;;;4.20;;
13204;SDS011;6667;52.634;9.226;2022-10-22T21:52:59;14.60;;;5.40;;
13204;SDS011;6667;52.634;9.226;2022-10-22T21:55:26;8.63;;;4.53;;
13204;SDS011;6667;52.634;9.226;2022-10-22T21:57:54;6.23;;;4.53;;
13204;SDS011;6667;52.634;9.226;2022-10-22T22:00:21;8.00;;;5.53;;
13204;SDS011;6667;52.634;9.226;2022-10-22T22:02:47;6.17;;;4.50;;
13204;SDS011;6667;52.634;9.226;2022-10-22T22:05:14;7.83;;;4.73;;
13204;SDS011;6667;52.634;9.226;2022-10-22T22:07:41;7.90;;;5.20;;
13204;SDS011;6667;52.634;9.226;2022-10-22T22:10:09;7.07;;;4.93;;
13204;SDS011;6667;52.634;9.226;2022-10-22T22:12:36;7.07;;;4.87;;
13204;SDS011;6667;52.634;9.226;2022-10-22T22:15:03;7.77;;;4.80;;
13204;SDS011;6667;52.634;9.226;2022-10-22T22:17:30;6.07;;;5.23;;
13204;SDS011;6667;52.634;9.226;2022-10-22T22:19:57;6.77;;;4.70;;
13204;SDS011;6667;52.634;9.226;2022-10-22T22:22:24;7.83;;;5.10;;
13204;SDS011;6667;52.634;9.226;2022-10-22T22:24:51;8.50;;;5.00;;
